Terminal Aerodrome Forecast
Issued by NWS

Current Version | Previous Version | Text Only | Print | Product List | Glossary On
Versions: 1 2 3 4 5 6 7 8 9 10 11 12 13
973
FTUS41 KLWX 181721
TAFMTN
TAF
KMTN 181721Z 1818/1918 14006KT P6SM VCTS SCT040CB
     FM190000 17005KT P6SM FEW050 FEW250
     FM190900 00000KT 6SM BR FEW050 FEW250
     FM191200 00000KT P6SM SCT050=

USA.gov is the U.S. government's official web portal to all federal, state and local government web resources and services.